Data for 04/06/2013

Time Sea-Level Adjusted Pressure Absolute Pressure Temperature Relative Humidity Dew Point   
(mb) (inHg) (mb) (inHg) (C) (F) (%) (C) (F)
00:05 1015 29.97 844 24.92 6.8 44.3 49 -3 26.6
00:10 1015 29.97 844 24.92 6.8 44.3 49 -3 26.6
00:15 1015 29.97 844 24.92 6.7 44 50 -3 26.6
00:20 1015 29.97 844 24.92 6.5 43.8 50 -3.1 26.4
00:25 1015 29.97 844 24.92 6.6 43.8 49 -3.3 26
00:30 1015 29.97 844 24.92 6.7 44 49 -3.3 26
00:35 1015 29.97 844 24.92 6.8 44.2 48 -3.4 25.8
00:40 1015 29.97 844 24.92 6.8 44.2 48 -3.3 26
00:45 1015 29.97 844 24.92 6.8 44.2 49 -3.3 26.1
00:50 1015 29.97 844 24.92 6.6 43.9 50 -3.1 26.5
00:55 1015 29.97 844 24.92 6.4 43.4 51 -3.1 26.4
01:00 1015 29.97 844 24.92 6.2 43.2 51 -3.1 26.5
01:05 1015 29.97 844 24.92 6 42.8 52 -3 26.6
01:10 1014 29.94 844 24.92 5.8 42.5 52 -3.2 26.2
01:15 1014 29.94 844 24.92 6 42.8 52 -3.2 26.3
01:20 1015 29.97 844 24.92 6 42.8 51 -3.2 26.2
01:25 1014 29.94 844 24.92 6.1 42.9 51 -3.3 26.1
01:30 1014 29.94 844 24.92 6.1 43 51 -3.3 26.1
01:35 1014 29.94 843 24.89 6.2 43.2 50 -3.4 25.9
01:40 1014 29.94 843 24.89 6.3 43.4 51 -3 26.6
01:45 1014 29.94 843 24.89 6.1 43 52 -2.9 26.8
01:50 1014 29.94 843 24.89 5.6 42.1 54 -3 26.5
01:55 1014 29.94 844 24.92 5.4 41.8 55 -3 26.7
02:00 1014 29.94 844 24.92 5.2 41.4 56 -2.7 27.1
02:05 1014 29.94 843 24.89 4.6 40.3 60 -2.4 27.7
02:10 1014 29.94 843 24.89 3.9 39 63 -2.5 27.5
02:15 1014 29.94 843 24.89 3.8 38.8 64 -2.4 27.6
02:20 1014 29.94 843 24.89 3.8 38.9 63 -2.5 27.4
02:25 1014 29.94 843 24.89 4 39.2 64 -2.2 28
02:30 1014 29.94 843 24.89 3.7 38.6 65 -2.3 27.9
02:35 1014 29.94 843 24.89 3.7 38.7 64 -2.4 27.6
02:40 1014 29.94 843 24.89 3.4 38.2 67 -2 28.4
02:45 1014 29.94 843 24.89 3 37.4 68 -2.4 27.7
02:50 1014 29.94 843 24.89 3.3 37.9 65 -2.7 27.1
02:55 1014 29.94 843 24.89 3.5 38.3 65 -2.5 27.4
03:00 1014 29.94 843 24.89 3.4 38.1 66 -2.4 27.7
03:05 1014 29.94 843 24.89 3.3 38 66 -2.5 27.6
03:10 1014 29.94 843 24.89 3.6 38.5 65 -2.3 27.8
03:15 1014 29.94 843 24.89 3.8 38.8 66 -2 28.4
03:20 1014 29.94 843 24.89 3.4 38.1 68 -2 28.5
03:25 1014 29.94 843 24.89 3.2 37.7 68 -2.1 28.3
03:30 1014 29.94 843 24.89 3.1 37.6 70 -1.9 28.6
03:35 1014 29.94 843 24.89 3.4 38.1 66 -2.3 27.9
03:40 1014 29.94 843 24.89 3.4 38.1 67 -2.1 28.2
03:45 1014 29.94 843 24.89 3.3 38 68 -1.9 28.6
03:50 1014 29.94 843 24.89 3 37.5 70 -1.9 28.6
03:55 1014 29.94 843 24.89 2.8 37.1 70 -2.2 28.1
04:00 1014 29.94 843 24.89 2.9 37.2 69 -2.2 28.1
04:05 1014 29.94 843 24.89 2.8 37.1 70 -2.2 28.1
04:10 1014 29.94 843 24.89 2.8 37 69 -2.3 27.8
04:15 1014 29.94 843 24.89 2.7 36.9 69 -2.3 27.9
04:20 1014 29.94 843 24.89 2.6 36.8 69 -2.5 27.5
04:25 1014 29.94 843 24.89 2.8 37.1 68 -2.4 27.7
04:30 1014 29.94 843 24.89 2.9 37.2 68 -2.4 27.6
04:35 1014 29.94 843 24.89 2.8 37.1 68 -2.4 27.6
04:40 1014 29.94 843 24.89 3 37.3 67 -2.5 27.5
04:45 1014 29.94 843 24.89 3.1 37.5 67 -2.4 27.6
04:50 1014 29.94 843 24.89 3 37.5 68 -2.4 27.7
04:55 1014 29.94 843 24.89 2.8 37.1 69 -2.3 27.8
05:00 1014 29.94 843 24.89 2.7 36.8 70 -2.3 27.8
05:05 1014 29.94 843 24.89 2.4 36.4 72 -2.2 28
05:10 1014 29.94 843 24.89 2.2 36 72 -2.3 27.9
05:15 1014 29.94 843 24.89 2.3 36.2 71 -2.4 27.7
05:20 1014 29.94 843 24.89 2.4 36.3 71 -2.4 27.7
05:25 1014 29.94 843 24.89 2.4 36.4 71 -2.3 27.8
05:30 1014 29.94 843 24.89 2.5 36.5 70 -2.4 27.7
05:35 1014 29.94 843 24.89 2.6 36.6 70 -2.3 27.9
05:40 1014 29.94 843 24.89 2.5 36.5 71 -2.3 27.9
05:45 1014 29.94 843 24.89 2.4 36.2 71 -2.3 27.9
05:50 1014 29.94 843 24.89 2.2 36 72 -2.2 28
05:55 1014 29.94 843 24.89 2.3 36.1 71 -2.5 27.5
06:00 1014 29.94 843 24.89 2.6 36.6 70 -2.4 27.6
06:05 1014 29.94 843 24.89 2.7 36.9 69 -2.5 27.5
06:10 1014 29.94 843 24.89 2.8 37.1 68 -2.5 27.6
06:15 1014 29.94 843 24.89 2.9 37.2 67 -2.5 27.4
06:20 1014 29.94 843 24.89 3 37.5 68 -2.2 28.1
06:25 1014 29.94 843 24.89 3.1 37.6 65 -2.8 27
06:30 1014 29.94 843 24.89 3.5 38.2 65 -2.4 27.7
06:35 1014 29.94 843 24.89 3.2 37.7 68 -2.1 28.2
06:40 1014 29.94 843 24.89 2.9 37.3 69 -2.2 28.1
06:45 1014 29.94 843 24.89 2.9 37.2 69 -2.1 28.1
06:50 1014 29.94 843 24.89 2.9 37.2 70 -2 28.4
06:55 1014 29.94 843 24.89 2.9 37.1 71 -2 28.5
07:00 1014 29.94 843 24.89 3 37.4 69 -2.2 28.1
07:05 1014 29.94 843 24.89 3.3 37.9 68 -2.1 28.2
07:10 1014 29.94 843 24.89 3.6 38.4 66 -2.2 28.1
07:15 1014 29.94 843 24.89 3.9 39 63 -2.4 27.7
07:20 1014 29.94 843 24.89 4.2 39.6 61 -2.6 27.4
07:25 1014 29.94 843 24.89 4.6 40.2 62 -2.1 28.2
07:30 1014 29.94 843 24.89 4.7 40.5 62 -1.9 28.5
07:35 1014 29.94 843 24.89 4.9 40.8 62 -1.8 28.8
07:40 1014 29.94 843 24.89 5 41 61 -1.9 28.6
07:45 1014 29.94 843 24.89 5.2 41.4 59 -2.1 28.3
07:50 1014 29.94 843 24.89 5.3 41.5 62 -1.4 29.5
07:55 1014 29.94 843 24.89 5.2 41.4 59 -2.1 28.2
08:00 1014 29.94 843 24.89 5.5 42 54 -3.1 26.4
08:05 1014 29.94 843 24.89 6 42.9 54 -2.6 27.3
08:10 1014 29.94 843 24.89 6.3 43.4 53 -2.4 27.6
08:15 1014 29.94 843 24.89 6.4 43.6 59 -1 30.1
08:20 1014 29.94 843 24.89 6.2 43.2 59 -1.2 29.9
08:25 1014 29.94 843 24.89 6 42.8 58 -1.5 29.2
08:30 1014 29.94 843 24.89 6.3 43.3 57 -1.5 29.3
08:35 1014 29.94 843 24.89 6.6 43.9 54 -2 28.4
08:40 1014 29.94 843 24.89 6.8 44.3 53 -2 28.5
08:45 1014 29.94 843 24.89 6.9 44.3 55 -1.5 29.2
08:50 1014 29.94 843 24.89 6.8 44.3 55 -1.5 29.4
08:55 1014 29.94 843 24.89 6.7 44.1 55 -1.7 28.9
09:00 1014 29.94 843 24.89 6.7 44.1 55 -1.7 28.9
09:05 1014 29.94 843 24.89 6.8 44.2 54 -1.8 28.8
09:10 1014 29.94 843 24.89 7 44.6 53 -1.8 28.7
09:15 1014 29.94 843 24.89 7.3 45.1 50 -2.5 27.6
09:20 1014 29.94 843 24.89 7.5 45.6 51 -2.1 28.3
09:25 1014 29.94 843 24.89 7.8 46 49 -2.3 27.8
09:30 1014 29.94 843 24.89 7.9 46.2 48 -2.3 27.8
09:35 1014 29.94 843 24.89 8.1 46.6 46 -2.7 27.2
09:40 1014 29.94 843 24.89 8.2 46.7 47 -2.4 27.7
09:45 1014 29.94 843 24.89 8.4 47.1 46 -2.4 27.7
09:50 1014 29.94 843 24.89 8.5 47.4 45 -2.6 27.4
09:55 1014 29.94 843 24.89 8.7 47.6 43 -3.1 26.5
10:00 1014 29.94 843 24.89 8.8 47.8 44 -2.7 27.1
10:05 1014 29.94 843 24.89 9 48.2 43 -2.8 26.9
10:10 1013 29.91 843 24.89 9.1 48.4 42 -3 26.5
10:15 1013 29.91 843 24.89 9.5 49.1 40 -3.4 25.9
10:20 1013 29.91 843 24.89 10.1 50.2 39 -3.1 26.3
10:25 1013 29.91 843 24.89 10.2 50.3 40 -2.9 26.8
10:30 1013 29.91 843 24.89 10 49.9 39 -3.3 26.1
10:35 1013 29.91 842 24.86 9.9 49.8 39 -3.4 26
10:40 1013 29.91 842 24.86 10 49.9 40 -3.1 26.5
10:45 1013 29.91 842 24.86 9.9 49.8 38 -3.6 25.5
10:50 1013 29.91 842 24.86 10.3 50.5 38 -3.4 25.8
10:55 1013 29.91 842 24.86 10.1 50.2 39 -3.3 26
11:00 1013 29.91 842 24.86 10.4 50.6 38 -3.3 26.1
11:05 1013 29.91 842 24.86 10.4 50.8 37 -3.5 25.7
11:10 1013 29.91 842 24.86 10.4 50.7 37 -3.8 25.2
11:15 1013 29.91 842 24.86 10.4 50.7 37 -3.6 25.6
11:20 1013 29.91 842 24.86 10.7 51.2 36 -3.7 25.3
11:25 1013 29.91 842 24.86 10.7 51.2 37 -3.5 25.8
11:30 1013 29.91 842 24.86 10.8 51.4 35 -3.9 25
11:35 1013 29.91 842 24.86 10.9 51.6 34 -4.4 24.1
11:40 1013 29.91 842 24.86 11.4 52.5 32 -4.6 23.8
11:45 1013 29.91 842 24.86 11.5 52.7 33 -4.1 24.7
11:50 1013 29.91 842 24.86 11.4 52.5 33 -4.1 24.7
11:55 1013 29.91 842 24.86 11.9 53.4 33 -4 24.9
12:00 1012 29.88 842 24.86 12.1 53.8 33 -3.8 25.2
12:05 1012 29.88 842 24.86 12.5 54.5 33 -3.5 25.7
12:10 1012 29.88 842 24.86 12.4 54.4 31 -4 24.8
12:15 1012 29.88 841 24.83 12.2 54 32 -3.9 24.9
12:20 1012 29.88 841 24.83 12.1 53.7 32 -3.9 24.9
12:25 1012 29.88 841 24.83 12.4 54.3 32 -3.8 25.1
12:30 1012 29.88 841 24.83 12.2 54 32 -4.1 24.6
12:35 1012 29.88 841 24.83 12.6 54.6 30 -4.4 24.1
12:40 1012 29.88 841 24.83 13 55.3 31 -3.8 25.2
12:45 1012 29.88 841 24.83 13.1 55.6 29 -4.6 23.8
12:50 1012 29.88 841 24.83 13 55.4 30 -4.1 24.5
12:55 1012 29.88 841 24.83 13.1 55.5 29 -4.4 24.2
13:00 1012 29.88 841 24.83 12.6 54.7 30 -4.4 24
13:05 1012 29.88 841 24.83 12.7 54.8 29 -5 23.1
13:10 1012 29.88 841 24.83 12.6 54.7 29 -4.9 23.1
13:15 1012 29.88 841 24.83 13 55.4 28 -5 23.1
13:20 1012 29.88 841 24.83 13.3 55.9 28 -4.8 23.3
13:25 1012 29.88 841 24.83 13 55.3 26 -6.3 20.7
13:30 1012 29.88 841 24.83 12.8 55 27 -5.6 22
13:35 1012 29.88 841 24.83 12.6 54.6 30 -4.5 24
13:40 1012 29.88 841 24.83 12.3 54.2 30 -4.7 23.5
13:45 1012 29.88 841 24.83 12.3 54.2 31 -4.3 24.3
13:50 1011 29.85 841 24.83 12.4 54.2 32 -4 24.8
13:55 1012 29.88 841 24.83 11.6 52.9 40 -1.5 29.3
14:00 1012 29.88 841 24.83 10.3 50.6 43 -1.8 28.8
14:05 1011 29.85 841 24.83 10.2 50.4 38 -3.6 25.5
14:10 1011 29.85 841 24.83 10.4 50.8 42 -2 28.4
14:15 1012 29.88 841 24.83 10 50.1 45 -1.2 29.8
14:20 1011 29.85 841 24.83 9.8 49.7 44 -1.7 29
14:25 1011 29.85 841 24.83 9.5 49.1 48 -1 30.3
14:30 1011 29.85 841 24.83 9.5 49.1 48 -1 30.1
14:35 1011 29.85 841 24.83 9.8 49.6 46 -1.3 29.7
14:40 1011 29.85 841 24.83 9.9 49.8 45 -1.4 29.4
14:45 1011 29.85 841 24.83 10.1 50.1 43 -2 28.4
14:50 1011 29.85 841 24.83 9.9 49.8 45 -1.5 29.3
14:55 1012 29.88 841 24.83 9.6 49.3 47 -1.2 29.8
15:00 1012 29.88 841 24.83 9.3 48.8 48 -1.2 29.8
15:05 1012 29.88 841 24.83 9.5 49 45 -1.7 28.9
15:10 1012 29.88 841 24.83 9.5 49.1 45 -1.7 29
15:15 1011 29.85 841 24.83 9.6 49.3 42 -2.7 27.1
15:20 1012 29.88 841 24.83 9.9 49.7 42 -2.4 27.7
15:25 1012 29.88 841 24.83 10 50 40 -3 26.7
15:30 1012 29.88 841 24.83 10.2 50.3 39 -3.1 26.4
15:35 1012 29.88 841 24.83 10.2 50.3 39 -3 26.7
15:40 1012 29.88 841 24.83 10.3 50.5 38 -3.5 25.7
15:45 1012 29.88 841 24.83 10.4 50.7 38 -3.3 26
15:50 1011 29.85 841 24.83 10.6 51.1 37 -3.6 25.5
15:55 1012 29.88 841 24.83 10.6 51.2 37 -3.4 25.8
16:00 1012 29.88 841 24.83 10.7 51.2 38 -3 26.6
16:05 1012 29.88 841 24.83 10.6 51 44 -1 30.2
16:10 1012 29.88 841 24.83 9.4 48.9 55 0.8 33.4
16:15 1012 29.88 842 24.86 8.4 47.2 60 1 33.9
16:20 1013 29.91 842 24.86 8.1 46.7 60 0.8 33.4
16:25 1013 29.91 842 24.86 8.1 46.6 59 0.5 32.9
16:30 1013 29.91 842 24.86 7.8 46.1 62 1 33.8
16:35 1013 29.91 842 24.86 7.5 45.4 63 0.8 33.4
16:40 1013 29.91 842 24.86 7.5 45.5 62 0.8 33.4
16:45 1013 29.91 842 24.86 7.3 45.2 64 1 33.8
16:50 1012 29.88 842 24.86 6.9 44.5 68 1.4 34.5
16:55 1012 29.88 841 24.83 6.6 44 69 1.3 34.4
17:00 1012 29.88 841 24.83 6.8 44.2 67 1.1 33.9
17:05 1012 29.88 841 24.83 7 44.6 63 0.5 33
17:10 1012 29.88 841 24.83 7.1 44.8 63 0.5 32.9
17:15 1012 29.88 841 24.83 7.3 45.2 60 0.2 32.4
17:20 1012 29.88 841 24.83 7.6 45.6 61 0.5 32.8
17:25 1012 29.88 841 24.83 7.6 45.7 62 0.9 33.7
17:30 1012 29.88 841 24.83 7.4 45.3 63 0.8 33.5
17:35 1012 29.88 841 24.83 7.3 45.2 63 0.7 33.2
17:40 1012 29.88 841 24.83 7.4 45.2 62 0.5 33
17:45 1012 29.88 841 24.83 7.3 45.1 61 0.4 32.7
17:50 1012 29.88 841 24.83 7.3 45.2 62 0.5 32.8
17:55 1012 29.88 841 24.83 7.4 45.3 61 0.4 32.8
18:00 1012 29.88 841 24.83 7.4 45.2 60 0.2 32.4
18:05 1012 29.88 842 24.86 7.4 45.3 61 0.4 32.8
18:10 1013 29.91 842 24.86 7.4 45.3 66 1.5 34.7
18:15 1013 29.91 842 24.86 7.1 44.9 69 1.8 35.2
18:20 1013 29.91 842 24.86 6.8 44.3 70 1.8 35.2
18:25 1013 29.91 842 24.86 6.3 43.3 74 1.9 35.4
18:30 1013 29.91 842 24.86 5.7 42.3 77 2 35.6
18:35 1013 29.91 842 24.86 5.1 41.2 82 2.2 36
18:40 1013 29.91 842 24.86 4.8 40.6 83 2.1 35.8
18:45 1013 29.91 842 24.86 4.6 40.4 85 2.3 36.2
18:50 1013 29.91 842 24.86 4.5 40.2 86 2.4 36.3
18:55 1013 29.91 842 24.86 4.5 40.2 86 2.3 36.2
19:00 1013 29.91 842 24.86 4.5 40.1 84 2.1 35.7
19:05 1013 29.91 842 24.86 4.6 40.2 85 2.3 36.1
19:10 1013 29.91 842 24.86 4.3 39.8 86 2.2 36
19:15 1013 29.91 842 24.86 4.3 39.8 87 2.3 36.2
19:20 1013 29.91 842 24.86 4.5 40.1 85 2.2 36
19:25 1013 29.91 842 24.86 4.7 40.4 86 2.5 36.5
19:30 1013 29.91 842 24.86 4.8 40.6 85 2.4 36.4
19:35 1013 29.91 842 24.86 4.8 40.6 85 2.5 36.4
19:40 1013 29.91 842 24.86 4.7 40.5 86 2.6 36.6
19:45 1013 29.91 842 24.86 4.7 40.5 86 2.6 36.7
19:50 1013 29.91 842 24.86 4.7 40.5 86 2.6 36.6
19:55 1013 29.91 842 24.86 4.7 40.5 85 2.5 36.4
20:00 1013 29.91 842 24.86 4.8 40.6 85 2.4 36.3
20:05 1013 29.91 842 24.86 4.7 40.5 84 2.3 36.2
20:10 1013 29.91 842 24.86 4.7 40.4 83 2 35.6
20:15 1013 29.91 842 24.86 4.7 40.5 83 2.1 35.8
20:20 1013 29.91 842 24.86 4.7 40.5 82 2 35.5
20:25 1013 29.91 842 24.86 4.8 40.6 81 1.9 35.4
20:30 1013 29.91 842 24.86 4.8 40.6 83 2.2 35.9
20:35 1013 29.91 842 24.86 4.7 40.5 83 2 35.7
20:40 1013 29.91 842 24.86 4.6 40.4 83 2 35.6
20:45 1013 29.91 842 24.86 4.6 40.2 85 2.2 36
20:50 1013 29.91 842 24.86 4.5 40 84 2 35.6
20:55 1013 29.91 842 24.86 4.5 40.1 83 1.9 35.4
21:00 1013 29.91 842 24.86 4.4 40 83 1.9 35.4
21:05 1013 29.91 842 24.86 4.4 40 82 1.6 34.8
21:10 1013 29.91 842 24.86 4.6 40.2 81 1.6 34.9
21:15 1013 29.91 842 24.86 4.5 40.1 81 1.5 34.8
21:20 1013 29.91 842 24.86 4.5 40.2 79 1.2 34.1
21:25 1013 29.91 842 24.86 4.8 40.6 78 1.2 34.2
21:30 1013 29.91 842 24.86 5 41 77 1.3 34.4
21:35 1013 29.91 842 24.86 4.9 40.9 77 1.3 34.4
21:40 1013 29.91 842 24.86 4.8 40.6 79 1.4 34.5
21:45 1013 29.91 842 24.86 4.6 40.4 79 1.3 34.4
21:50 1013 29.91 842 24.86 4.6 40.3 79 1.4 34.5
21:55 1013 29.91 842 24.86 4.7 40.4 81 1.7 35
22:00 1013 29.91 842 24.86 4.6 40.3 83 1.9 35.5
22:05 1013 29.91 842 24.86 4.5 40.1 85 2.3 36.1
22:10 1013 29.91 842 24.86 4.7 40.4 85 2.4 36.3
22:15 1013 29.91 842 24.86 4.8 40.6 85 2.4 36.4
22:20 1013 29.91 842 24.86 4.8 40.6 85 2.5 36.6
22:25 1013 29.91 842 24.86 4.8 40.7 85 2.6 36.7
22:30 1013 29.91 842 24.86 4.8 40.6 83 2.1 35.7
22:35 1013 29.91 842 24.86 4.5 40.1 83 1.9 35.5
22:40 1013 29.91 842 24.86 4.5 40.1 83 1.9 35.4
22:45 1013 29.91 842 24.86 4.5 40.2 83 1.9 35.3
22:50 1013 29.91 842 24.86 4.4 39.9 84 1.9 35.4
22:55 1013 29.91 842 24.86 4 39.3 85 1.8 35.2
23:00 1013 29.91 842 24.86 3.9 39.1 84 1.5 34.8
23:05 1013 29.91 842 24.86 4 39.3 85 1.8 35.2
23:10 1013 29.91 842 24.86 4 39.1 85 1.6 34.9
23:15 1013 29.91 842 24.86 4 39.2 86 1.8 35.3
23:20 1013 29.91 842 24.86 4 39.2 85 1.6 34.9
23:25 1013 29.91 842 24.86 4 39.2 86 1.9 35.5
23:30 1013 29.91 842 24.86 3.9 39.1 87 2 35.7
23:35 1013 29.91 842 24.86 3.7 38.7 88 2 35.5
23:40 1013 29.91 842 24.86 3.6 38.5 87 1.6 35
23:45 1012 29.88 842 24.86 3.8 38.8 86 1.6 34.9
23:50 1012 29.88 842 24.86 3.8 38.8 85 1.5 34.6
23:55 1012 29.88 842 24.86 3.9 39 83 1.3 34.4
24:00 1012 29.88 841 24.83 4 39.1 83 1.3 34.3